sensor_id;sensor_type;location;lat;lon;timestamp;P1;durP1;ratioP1;P2;durP2;ratioP2
57335;SDS011;43171;50.994;18.204;2024-02-16T00:00:53;46.60;;;25.80;;
57335;SDS011;43171;50.994;18.204;2024-02-16T00:10:38;51.50;;;25.90;;
57335;SDS011;43171;50.994;18.204;2024-02-16T00:20:20;58.10;;;29.30;;
57335;SDS011;43171;50.994;18.204;2024-02-16T00:30:06;52.70;;;28.90;;
57335;SDS011;43171;50.994;18.204;2024-02-16T00:39:49;47.80;;;22.60;;
57335;SDS011;43171;50.994;18.204;2024-02-16T00:49:32;45.80;;;25.10;;
57335;SDS011;43171;50.994;18.204;2024-02-16T00:59:14;43.70;;;24.80;;
57335;SDS011;43171;50.994;18.204;2024-02-16T01:08:57;44.60;;;26.00;;
57335;SDS011;43171;50.994;18.204;2024-02-16T01:18:39;39.30;;;23.50;;
57335;SDS011;43171;50.994;18.204;2024-02-16T01:28:22;38.90;;;22.90;;
57335;SDS011;43171;50.994;18.204;2024-02-16T01:38:05;38.90;;;23.20;;
57335;SDS011;43171;50.994;18.204;2024-02-16T01:47:49;37.20;;;19.60;;
57335;SDS011;43171;50.994;18.204;2024-02-16T01:57:38;33.20;;;18.50;;
57335;SDS011;43171;50.994;18.204;2024-02-16T02:07:27;30.80;;;20.00;;
57335;SDS011;43171;50.994;18.204;2024-02-16T02:17:09;36.30;;;22.00;;
57335;SDS011;43171;50.994;18.204;2024-02-16T02:26:52;39.60;;;22.90;;
57335;SDS011;43171;50.994;18.204;2024-02-16T02:36:34;37.40;;;22.30;;
57335;SDS011;43171;50.994;18.204;2024-02-16T02:46:17;30.80;;;19.50;;
57335;SDS011;43171;50.994;18.204;2024-02-16T02:51:09;43.70;;;29.10;;
57335;SDS011;43171;50.994;18.204;2024-02-16T03:00:52;34.50;;;20.20;;
57335;SDS011;43171;50.994;18.204;2024-02-16T03:10:34;36.90;;;22.70;;
57335;SDS011;43171;50.994;18.204;2024-02-16T03:20:20;37.80;;;19.70;;
57335;SDS011;43171;50.994;18.204;2024-02-16T03:30:03;24.20;;;15.20;;
57335;SDS011;43171;50.994;18.204;2024-02-16T03:39:47;34.70;;;19.20;;
57335;SDS011;43171;50.994;18.204;2024-02-16T03:49:29;28.60;;;18.70;;
57335;SDS011;43171;50.994;18.204;2024-02-16T03:59:11;28.90;;;18.00;;
57335;SDS011;43171;50.994;18.204;2024-02-16T04:08:54;33.80;;;21.40;;
57335;SDS011;43171;50.994;18.204;2024-02-16T04:18:35;30.30;;;22.10;;
57335;SDS011;43171;50.994;18.204;2024-02-16T04:28:17;30.90;;;20.20;;
57335;SDS011;43171;50.994;18.204;2024-02-16T04:38:00;14.10;;;12.60;;
57335;SDS011;43171;50.994;18.204;2024-02-16T04:47:43;39.30;;;20.60;;
57335;SDS011;43171;50.994;18.204;2024-02-16T04:57:32;33.50;;;18.70;;
57335;SDS011;43171;50.994;18.204;2024-02-16T05:20:32;11.20;;;9.10;;
57335;SDS011;43171;50.994;18.204;2024-02-16T05:30:14;32.80;;;21.20;;
57335;SDS011;43171;50.994;18.204;2024-02-16T05:40:14;24.00;;;20.00;;
57335;SDS011;43171;50.994;18.204;2024-02-16T05:50:13;28.50;;;18.10;;
57335;SDS011;43171;50.994;18.204;2024-02-16T05:59:58;38.40;;;21.50;;
57335;SDS011;43171;50.994;18.204;2024-02-16T06:09:42;31.70;;;20.40;;
57335;SDS011;43171;50.994;18.204;2024-02-16T06:19:27;35.50;;;23.30;;
57335;SDS011;43171;50.994;18.204;2024-02-16T06:29:12;26.70;;;18.20;;
57335;SDS011;43171;50.994;18.204;2024-02-16T06:38:54;24.70;;;18.60;;
57335;SDS011;43171;50.994;18.204;2024-02-16T06:48:37;37.50;;;17.60;;
57335;SDS011;43171;50.994;18.204;2024-02-16T06:58:20;27.00;;;19.10;;
57335;SDS011;43171;50.994;18.204;2024-02-16T07:08:01;18.10;;;13.50;;
57335;SDS011;43171;50.994;18.204;2024-02-16T07:17:45;24.60;;;15.40;;
57335;SDS011;43171;50.994;18.204;2024-02-16T07:27:34;23.00;;;12.20;;
57335;SDS011;43171;50.994;18.204;2024-02-16T07:37:16;17.70;;;9.60;;
57335;SDS011;43171;50.994;18.204;2024-02-16T07:47:01;21.30;;;12.70;;
57335;SDS011;43171;50.994;18.204;2024-02-16T07:56:43;15.60;;;11.30;;
57335;SDS011;43171;50.994;18.204;2024-02-16T08:06:25;15.50;;;9.60;;
57335;SDS011;43171;50.994;18.204;2024-02-16T08:16:11;13.80;;;8.00;;
57335;SDS011;43171;50.994;18.204;2024-02-16T08:18:37;19.90;;;12.50;;
57335;SDS011;43171;50.994;18.204;2024-02-16T08:28:19;24.00;;;11.30;;
57335;SDS011;43171;50.994;18.204;2024-02-16T08:38:03;14.20;;;8.50;;
57335;SDS011;43171;50.994;18.204;2024-02-16T08:47:45;10.30;;;7.10;;
57335;SDS011;43171;50.994;18.204;2024-02-16T08:52:37;16.70;;;10.10;;
57335;SDS011;43171;50.994;18.204;2024-02-16T09:02:21;10.60;;;7.00;;
57335;SDS011;43171;50.994;18.204;2024-02-16T09:19:23;9.40;;;6.70;;
57335;SDS011;43171;50.994;18.204;2024-02-16T09:29:11;10.50;;;7.30;;
57335;SDS011;43171;50.994;18.204;2024-02-16T09:38:56;6.70;;;5.50;;
57335;SDS011;43171;50.994;18.204;2024-02-16T09:48:39;16.00;;;6.20;;
57335;SDS011;43171;50.994;18.204;2024-02-16T09:58:22;11.30;;;4.60;;
57335;SDS011;43171;50.994;18.204;2024-02-16T10:08:16;5.70;;;3.90;;
57335;SDS011;43171;50.994;18.204;2024-02-16T10:18:03;9.70;;;5.00;;
57335;SDS011;43171;50.994;18.204;2024-02-16T10:28:05;9.60;;;5.00;;
57335;SDS011;43171;50.994;18.204;2024-02-16T10:37:55;8.30;;;4.20;;
57335;SDS011;43171;50.994;18.204;2024-02-16T10:47:42;6.20;;;4.60;;
57335;SDS011;43171;50.994;18.204;2024-02-16T10:50:08;8.70;;;5.40;;
57335;SDS011;43171;50.994;18.204;2024-02-16T10:59:53;5.50;;;4.40;;
57335;SDS011;43171;50.994;18.204;2024-02-16T11:09:41;7.70;;;4.30;;
57335;SDS011;43171;50.994;18.204;2024-02-16T11:19:44;6.50;;;4.20;;
57335;SDS011;43171;50.994;18.204;2024-02-16T11:29:31;6.50;;;4.10;;
57335;SDS011;43171;50.994;18.204;2024-02-16T11:39:19;3.20;;;2.00;;
57335;SDS011;43171;50.994;18.204;2024-02-16T11:49:06;4.00;;;2.60;;
57335;SDS011;43171;50.994;18.204;2024-02-16T11:58:50;11.10;;;5.40;;
57335;SDS011;43171;50.994;18.204;2024-02-16T12:08:44;7.40;;;5.30;;
57335;SDS011;43171;50.994;18.204;2024-02-16T12:18:26;6.20;;;3.50;;
57335;SDS011;43171;50.994;18.204;2024-02-16T12:28:18;6.20;;;3.70;;
57335;SDS011;43171;50.994;18.204;2024-02-16T12:38:05;2.10;;;1.90;;
57335;SDS011;43171;50.994;18.204;2024-02-16T12:47:47;5.50;;;2.80;;
57335;SDS011;43171;50.994;18.204;2024-02-16T12:57:31;5.30;;;2.80;;
57335;SDS011;43171;50.994;18.204;2024-02-16T13:07:13;4.80;;;2.80;;
57335;SDS011;43171;50.994;18.204;2024-02-16T13:16:56;4.30;;;3.00;;
57335;SDS011;43171;50.994;18.204;2024-02-16T13:26:38;3.40;;;1.90;;
57335;SDS011;43171;50.994;18.204;2024-02-16T13:36:20;1.70;;;1.40;;
57335;SDS011;43171;50.994;18.204;2024-02-16T13:46:02;3.50;;;3.20;;
57335;SDS011;43171;50.994;18.204;2024-02-16T13:55:48;5.60;;;2.50;;
57335;SDS011;43171;50.994;18.204;2024-02-16T14:05:35;1.20;;;1.20;;
57335;SDS011;43171;50.994;18.204;2024-02-16T14:15:18;4.40;;;3.00;;
57335;SDS011;43171;50.994;18.204;2024-02-16T14:25:01;11.30;;;3.10;;
57335;SDS011;43171;50.994;18.204;2024-02-16T14:34:42;4.60;;;2.00;;
57335;SDS011;43171;50.994;18.204;2024-02-16T14:44:25;3.80;;;2.20;;
57335;SDS011;43171;50.994;18.204;2024-02-16T14:49:16;6.00;;;3.70;;
57335;SDS011;43171;50.994;18.204;2024-02-16T14:59:05;6.10;;;4.10;;
57335;SDS011;43171;50.994;18.204;2024-02-16T15:08:48;3.40;;;2.60;;
57335;SDS011;43171;50.994;18.204;2024-02-16T15:18:34;4.30;;;2.20;;
57335;SDS011;43171;50.994;18.204;2024-02-16T15:28:17;5.30;;;3.40;;
57335;SDS011;43171;50.994;18.204;2024-02-16T15:37:59;3.50;;;3.20;;
57335;SDS011;43171;50.994;18.204;2024-02-16T15:47:55;5.80;;;4.50;;
57335;SDS011;43171;50.994;18.204;2024-02-16T15:50:20;6.40;;;4.10;;
57335;SDS011;43171;50.994;18.204;2024-02-16T16:00:04;8.40;;;3.90;;
57335;SDS011;43171;50.994;18.204;2024-02-16T16:09:53;7.70;;;5.30;;
57335;SDS011;43171;50.994;18.204;2024-02-16T16:26:53;10.70;;;4.30;;
57335;SDS011;43171;50.994;18.204;2024-02-16T16:36:35;7.20;;;3.90;;
57335;SDS011;43171;50.994;18.204;2024-02-16T16:46:16;9.20;;;5.80;;
57335;SDS011;43171;50.994;18.204;2024-02-16T16:48:42;8.60;;;6.30;;
57335;SDS011;43171;50.994;18.204;2024-02-16T16:58:25;8.60;;;5.10;;
57335;SDS011;43171;50.994;18.204;2024-02-16T17:08:11;6.40;;;4.10;;
57335;SDS011;43171;50.994;18.204;2024-02-16T17:18:00;6.00;;;3.30;;
57335;SDS011;43171;50.994;18.204;2024-02-16T17:27:49;9.70;;;4.60;;
57335;SDS011;43171;50.994;18.204;2024-02-16T17:37:36;6.00;;;4.10;;
57335;SDS011;43171;50.994;18.204;2024-02-16T17:47:21;8.10;;;3.90;;
57335;SDS011;43171;50.994;18.204;2024-02-16T17:57:05;8.90;;;4.80;;
57335;SDS011;43171;50.994;18.204;2024-02-16T18:06:52;10.50;;;6.40;;
57335;SDS011;43171;50.994;18.204;2024-02-16T18:16:45;9.60;;;6.30;;
57335;SDS011;43171;50.994;18.204;2024-02-16T18:26:28;11.10;;;5.60;;
57335;SDS011;43171;50.994;18.204;2024-02-16T18:36:13;6.60;;;4.70;;
57335;SDS011;43171;50.994;18.204;2024-02-16T18:38:38;11.00;;;7.00;;
57335;SDS011;43171;50.994;18.204;2024-02-16T18:48:24;5.70;;;3.60;;
57335;SDS011;43171;50.994;18.204;2024-02-16T18:58:10;10.90;;;5.60;;
57335;SDS011;43171;50.994;18.204;2024-02-16T19:07:53;6.50;;;4.90;;
57335;SDS011;43171;50.994;18.204;2024-02-16T19:10:19;11.30;;;7.30;;
57335;SDS011;43171;50.994;18.204;2024-02-16T19:20:01;15.40;;;7.70;;
57335;SDS011;43171;50.994;18.204;2024-02-16T19:29:46;7.50;;;6.10;;
57335;SDS011;43171;50.994;18.204;2024-02-16T19:39:31;19.30;;;9.20;;
57335;SDS011;43171;50.994;18.204;2024-02-16T19:49:16;12.00;;;5.30;;
57335;SDS011;43171;50.994;18.204;2024-02-16T19:58:58;14.20;;;11.50;;
57335;SDS011;43171;50.994;18.204;2024-02-16T20:08:48;4.30;;;3.20;;
57335;SDS011;43171;50.994;18.204;2024-02-16T20:18:30;12.40;;;6.20;;
57335;SDS011;43171;50.994;18.204;2024-02-16T20:28:15;10.80;;;6.80;;
57335;SDS011;43171;50.994;18.204;2024-02-16T20:38:00;10.30;;;5.90;;
57335;SDS011;43171;50.994;18.204;2024-02-16T20:47:43;8.10;;;6.20;;
57335;SDS011;43171;50.994;18.204;2024-02-16T20:57:26;17.10;;;9.70;;
57335;SDS011;43171;50.994;18.204;2024-02-16T21:07:09;14.30;;;8.40;;
57335;SDS011;43171;50.994;18.204;2024-02-16T21:16:51;18.70;;;9.60;;
57335;SDS011;43171;50.994;18.204;2024-02-16T21:26:46;21.50;;;10.50;;
57335;SDS011;43171;50.994;18.204;2024-02-16T21:36:30;16.80;;;10.60;;
57335;SDS011;43171;50.994;18.204;2024-02-16T21:46:24;19.70;;;8.40;;
57335;SDS011;43171;50.994;18.204;2024-02-16T21:56:24;16.20;;;8.10;;
57335;SDS011;43171;50.994;18.204;2024-02-16T22:06:11;13.30;;;9.00;;
57335;SDS011;43171;50.994;18.204;2024-02-16T22:15:55;16.60;;;10.10;;
57335;SDS011;43171;50.994;18.204;2024-02-16T22:25:39;18.50;;;11.20;;
57335;SDS011;43171;50.994;18.204;2024-02-16T22:35:22;18.50;;;12.00;;
57335;SDS011;43171;50.994;18.204;2024-02-16T22:45:06;15.40;;;8.80;;
57335;SDS011;43171;50.994;18.204;2024-02-16T22:54:48;16.90;;;10.10;;
57335;SDS011;43171;50.994;18.204;2024-02-16T23:04:31;13.10;;;10.40;;
57335;SDS011;43171;50.994;18.204;2024-02-16T23:14:13;17.60;;;11.20;;
57335;SDS011;43171;50.994;18.204;2024-02-16T23:23:57;24.10;;;11.10;;
57335;SDS011;43171;50.994;18.204;2024-02-16T23:33:40;22.10;;;12.70;;
57335;SDS011;43171;50.994;18.204;2024-02-16T23:43:24;17.80;;;10.10;;
57335;SDS011;43171;50.994;18.204;2024-02-16T23:53:07;21.40;;;14.10;;
